EHDL Airport Information

Runway Information
Runway 02 Length 9678 ft width 164 ft
Elevation 144 ft Threshold 895 ft Heading 18
Runway 20 Length 9678 ft Width 164 ft
Elevation 158 ft Threshold 899 ft Heading 198
Airport Frequencies
Type APP Name RAPCON WES Frequency 123.575 MHZ
Type TWR Name TWR Frequency 122.1 MHZ
Airport Navaids
Type TACAN Name Deelen Frequency 112200 KHZ
Airport Weather Information & NOTAM
ADDS - METARS form results

(0226 UTC 20 January 2019)
Data provider http://aviationweather.gov/metar/data/
 
METAR text: EHDL 200225Z AUTO 09005KT 010V160 9999 NCD M04/M07 Q1015 BLU
Conditions at: EHDL (DEELEN RNLAFB , NL) observed 0225 UTC 20 January 2019
Temperature: -4.0°C (25°F)
Dewpoint: -7.0°C (19°F) [RH = 80%]
Pressure (altimeter): 29.97 inches Hg (1015.0 mb)
Winds: from the E (90 degrees) at 6 MPH (5 knots; 2.6 m/s)
Visibility: 6 or more miles (10+ km)
Ceiling: at least 12,000 feet AGL
Clouds: sky clear below 12,000 feet AGL
Weather: no significant weather observed at this time

METAR text: EHDL 200155Z AUTO 09005KT 350V150 9999 NCD M03/M07 Q1015 BLU
Conditions at: EHDL (DEELEN RNLAFB , NL) observed 0155 UTC 20 January 2019
Temperature: -3.0°C (27°F)
Dewpoint: -7.0°C (19°F) [RH = 74%]
Pressure (altimeter): 29.97 inches Hg (1015.0 mb)
Winds: from the E (90 degrees) at 6 MPH (5 knots; 2.6 m/s)
Visibility: 6 or more miles (10+ km)
Ceiling: at least 12,000 feet AGL
Clouds: sky clear below 12,000 feet AGL
Weather: no significant weather observed at this time